Time;durP1;ratioP1;P1;durP2;ratioP2;P2;SDS_P1;SDS_P2;PMS_P1;PMS_P2;Temp;Humidity;BMP_temperature;BMP_pressure;BME280_temperature;BME280_humidity;BME280_pressure;Samples;Min_cycle;Max_cycle;Signal;HPM_P1;HPM_P2
2021/01/30 00:00:24;;;;;;;0.28;0.28;;;0.20;99.90;;;;;;5090716;28;20171;-74
2021/01/30 00:02:50;;;;;;;0.20;0.20;;;0.10;99.90;;;;;;5090423;28;20199;-74
2021/01/30 00:05:15;;;;;;;0.30;0.30;;;0.20;99.90;;;;;;5090547;28;20187;-75
2021/01/30 00:07:41;;;;;;;0.50;0.50;;;0.30;99.90;;;;;;5090620;28;20206;-74
2021/01/30 00:10:08;;;;;;;3.72;3.22;;;0.60;99.90;;;;;;5090546;28;20156;-74
2021/01/30 00:12:34;;;;;;;1.48;1.38;;;0.60;99.90;;;;;;5090453;28;20656;-74
2021/01/30 00:15:00;;;;;;;0.98;0.95;;;0.70;99.90;;;;;;5088999;28;20186;-74
2021/01/30 00:17:25;;;;;;;0.17;0.17;;;0.80;99.90;;;;;;5090519;28;20189;-75
2021/01/30 00:19:51;;;;;;;0.30;0.30;;;0.80;99.90;;;;;;5089256;28;20164;-74
2021/01/30 00:22:20;;;;;;;0.63;0.63;;;1.10;99.90;;;;;;5090243;28;20196;-74
2021/01/30 00:24:48;;;;;;;0.25;0.25;;;1.20;99.90;;;;;;5088806;28;20227;-74
2021/01/30 00:27:19;;;;;;;0.20;0.20;;;1.10;99.90;;;;;;5090307;28;20152;-74
2021/01/30 00:29:45;;;;;;;0.50;0.50;;;0.90;99.90;;;;;;5090159;28;20220;-74
2021/01/30 00:32:12;;;;;;;0.10;0.10;;;0.80;99.90;;;;;;5090144;28;20295;-74
2021/01/30 00:34:39;;;;;;;1.38;1.38;;;0.90;99.90;;;;;;5090099;28;20186;-74
2021/01/30 00:37:21;;;;;;;0.20;0.20;;;0.80;99.90;;;;;;5090032;28;20164;-74
2021/01/30 00:39:49;;;;;;;0.10;0.10;;;0.70;99.90;;;;;;5089974;28;20160;-74
2021/01/30 00:42:17;;;;;;;0.10;0.10;;;0.80;99.90;;;;;;5089716;28;20345;-74
2021/01/30 00:44:43;;;;;;;1.33;1.27;;;0.80;99.90;;;;;;5089456;28;20272;-74
2021/01/30 00:47:11;;;;;;;0.20;0.20;;;0.70;99.90;;;;;;5089813;28;20253;-75
2021/01/30 00:49:40;;;;;;;0.20;0.20;;;0.70;99.90;;;;;;5089737;28;20216;-75
2021/01/30 00:52:05;;;;;;;1.25;1.00;;;0.50;99.90;;;;;;5088901;28;20192;-75
2021/01/30 00:54:31;;;;;;;0.73;0.73;;;0.30;99.90;;;;;;5082746;28;20187;-75
2021/01/30 00:56:57;;;;;;;0.90;0.90;;;0.20;99.90;;;;;;5071977;28;20161;-74
2021/01/30 00:59:23;;;;;;;0.52;0.52;;;0.10;99.90;;;;;;5089617;28;20171;-75
2021/01/30 01:01:50;;;;;;;0.52;0.52;;;0.20;99.90;;;;;;5084444;28;20195;-75
2021/01/30 01:04:18;;;;;;;0.30;0.30;;;0.20;99.90;;;;;;5069007;28;20264;-75
2021/01/30 01:06:44;;;;;;;1.17;1.10;;;0.30;99.90;;;;;;5069556;28;20157;-75
2021/01/30 01:09:10;;;;;;;0.63;0.63;;;0.40;99.90;;;;;;5068215;28;20173;-75
2021/01/30 01:11:37;;;;;;;0.13;0.13;;;0.50;99.90;;;;;;5084311;28;20255;-75
2021/01/30 01:14:04;;;;;;;0.28;0.28;;;0.60;99.90;;;;;;5089400;28;20531;-75
2021/01/30 01:16:33;;;;;;;0.50;0.50;;;0.60;99.90;;;;;;5087941;28;20243;-75
2021/01/30 01:18:59;;;;;;;1.40;1.30;;;0.60;99.90;;;;;;5088001;28;20175;-74
2021/01/30 01:21:25;;;;;;;0.10;0.10;;;0.60;99.90;;;;;;5089134;28;20210;-75
2021/01/30 01:23:51;;;;;;;0.17;0.17;;;0.50;99.90;;;;;;5087613;28;20292;-75
2021/01/30 01:26:18;;;;;;;1.25;1.15;;;0.40;99.90;;;;;;5089113;28;20168;-75
2021/01/30 01:28:45;;;;;;;0.10;0.10;;;0.20;99.90;;;;;;5071776;28;20169;-75
2021/01/30 01:31:12;;;;;;;0.13;0.13;;;0.20;99.90;;;;;;5068904;28;20199;-74
2021/01/30 01:33:39;;;;;;;0.30;0.30;;;0.20;99.90;;;;;;5068848;28;20160;-75
2021/01/30 01:36:06;;;;;;;0.10;0.10;;;0.10;99.90;;;;;;5068787;28;20229;-75
2021/01/30 01:38:32;;;;;;;0.10;0.10;;;0.00;99.90;;;;;;5068713;28;20213;-75
2021/01/30 01:41:01;;;;;;;0.20;0.20;;;0.00;99.90;;;;;;5068699;28;20585;-74
2021/01/30 01:43:28;;;;;;;0.57;0.57;;;0.00;99.90;;;;;;5067085;28;20303;-75
2021/01/30 01:46:21;;;;;;;0.20;0.20;;;-0.10;99.90;;;;;;5068872;28;20192;-74
2021/01/30 01:49:03;;;;;;;0.90;0.90;;;-0.20;99.90;;;;;;5068728;28;20195;-74
2021/01/30 01:51:43;;;;;;;0.10;0.10;;;-0.20;99.90;;;;;;5065828;28;20168;-74
2021/01/30 01:54:21;;;;;;;0.55;0.55;;;-0.10;99.90;;;;;;5066402;28;20195;-75
2021/01/30 01:56:51;;;;;;;0.20;0.20;;;0.40;99.90;;;;;;5068635;28;20160;-74
2021/01/30 01:59:19;;;;;;;0.10;0.10;;;0.70;99.90;;;;;;5068543;28;20192;-75
2021/01/30 02:01:46;;;;;;;0.82;0.82;;;0.80;99.90;;;;;;5068468;28;20168;-74
2021/01/30 02:04:15;;;;;;;0.88;0.82;;;0.70;99.90;;;;;;5068439;28;20195;-74
2021/01/30 02:06:44;;;;;;;0.30;0.30;;;0.80;99.90;;;;;;5067025;28;20172;-74
2021/01/30 02:09:14;;;;;;;0.50;0.50;;;0.60;99.90;;;;;;5068312;28;20185;-75
2021/01/30 02:11:41;;;;;;;0.10;0.10;;;0.50;99.90;;;;;;5068304;28;20156;-74
2021/01/30 02:14:09;;;;;;;0.10;0.10;;;0.50;99.90;;;;;;5068281;28;20230;-74
2021/01/30 02:16:50;;;;;;;0.10;0.10;;;0.40;99.90;;;;;;5067545;28;20160;-74
2021/01/30 02:19:53;;;;;;;0.13;0.13;;;0.40;99.90;;;;;;5068135;28;20188;-74
2021/01/30 02:22:56;;;;;;;0.30;0.30;;;0.40;99.90;;;;;;5068210;28;20184;-74
2021/01/30 02:25:31;;;;;;;0.10;0.10;;;0.20;99.90;;;;;;5068038;28;20330;-74
2021/01/30 02:28:25;;;;;;;0.10;0.10;;;0.00;99.90;;;;;;5066687;28;20192;-74
2021/01/30 02:31:16;;;;;;;0.13;0.13;;;-0.20;99.90;;;;;;5066851;28;20165;-74
2021/01/30 02:33:51;;;;;;;0.32;0.32;;;-0.20;99.90;;;;;;5068044;28;20219;-74
2021/01/30 02:36:32;;;;;;;0.10;0.10;;;-0.20;99.90;;;;;;5066733;28;20202;-75
2021/01/30 02:39:10;;;;;;;0.75;0.75;;;-0.30;99.90;;;;;;5067964;28;20612;-74
2021/01/30 02:41:42;;;;;;;1.08;1.08;;;-0.40;99.90;;;;;;5066322;28;20222;-74
2021/01/30 02:44:13;;;;;;;0.20;0.20;;;-0.40;99.90;;;;;;5066604;28;20228;-74
2021/01/30 02:46:46;;;;;;;0.17;0.17;;;-0.30;99.90;;;;;;5068009;28;20157;-74
2021/01/30 02:49:20;;;;;;;0.10;0.10;;;0.00;99.90;;;;;;5067880;28;20188;-74
2021/01/30 02:51:53;;;;;;;0.80;0.80;;;0.10;99.90;;;;;;5067978;28;20546;-74
2021/01/30 02:54:21;;;;;;;0.10;0.10;;;0.10;99.90;;;;;;5067807;28;20230;-74
2021/01/30 02:56:48;;;;;;;1.15;1.15;;;0.10;99.90;;;;;;5067952;28;20153;-74
2021/01/30 02:59:19;;;;;;;2.92;2.28;;;0.20;99.90;;;;;;5067685;28;20248;-74
2021/01/30 03:01:45;;;;;;;0.90;0.90;;;0.10;99.90;;;;;;5067823;28;20176;-74
2021/01/30 03:04:22;;;;;;;0.30;0.30;;;0.10;99.90;;;;;;5066355;28;20196;-74
2021/01/30 03:07:00;;;;;;;0.50;0.50;;;0.10;99.90;;;;;;5067901;28;20161;-75
2021/01/30 03:10:03;;;;;;;0.85;0.85;;;0.10;99.90;;;;;;5067758;28;20184;-74
2021/01/30 03:12:47;;;;;;;3.97;1.85;;;0.20;99.90;;;;;;5066323;28;20192;-74
2021/01/30 03:15:22;;;;;;;0.28;0.28;;;0.10;99.90;;;;;;5067687;28;20220;-75
2021/01/30 03:17:51;;;;;;;1.55;1.35;;;0.20;99.90;;;;;;5066195;28;20203;-75
2021/01/30 03:20:18;;;;;;;2.65;2.50;;;0.10;99.90;;;;;;5067615;28;20179;-74
2021/01/30 03:22:45;;;;;;;0.35;0.35;;;-0.10;99.90;;;;;;5067841;28;20239;-75
2021/01/30 03:25:20;;;;;;;1.65;1.23;;;-0.20;99.90;;;;;;5067707;28;20204;-75
2021/01/30 03:27:48;;;;;;;3.42;2.83;;;-0.20;99.90;;;;;;5068865;28;20261;-74
2021/01/30 03:30:15;;;;;;;1.05;1.05;;;-0.10;99.90;;;;;;5071211;28;20179;-75
2021/01/30 03:32:42;;;;;;;0.10;0.10;;;0.00;99.90;;;;;;5070184;28;20240;-75
2021/01/30 03:35:11;;;;;;;0.20;0.20;;;-0.20;99.90;;;;;;5071024;28;20161;-74
2021/01/30 03:37:37;;;;;;;0.20;0.20;;;-0.20;99.90;;;;;;5069681;28;20192;-74
2021/01/30 03:40:06;;;;;;;0.30;0.30;;;-0.30;99.90;;;;;;5071088;28;20153;-75
2021/01/30 03:42:31;;;;;;;0.10;0.10;;;-0.30;99.90;;;;;;5070858;28;20216;-75
2021/01/30 03:44:58;;;;;;;0.10;0.10;;;-0.20;99.90;;;;;;5069475;28;20207;-74
2021/01/30 03:47:24;;;;;;;0.20;0.20;;;-0.20;99.90;;;;;;5070849;28;20196;-75
2021/01/30 03:49:50;;;;;;;0.10;0.10;;;-0.20;99.90;;;;;;5071097;28;20161;-74
2021/01/30 03:52:15;;;;;;;0.40;0.40;;;-0.30;99.90;;;;;;5069835;28;20179;-73
2021/01/30 03:54:41;;;;;;;0.20;0.20;;;-0.50;99.90;;;;;;5070701;28;20161;-74
2021/01/30 03:57:07;;;;;;;0.10;0.10;;;-0.60;99.90;;;;;;5070598;28;20220;-75
2021/01/30 03:59:33;;;;;;;0.30;0.30;;;-0.60;99.90;;;;;;5070784;28;20165;-74
2021/01/30 04:01:59;;;;;;;0.20;0.20;;;-0.70;99.90;;;;;;5070865;28;20168;-75
2021/01/30 04:04:25;;;;;;;0.30;0.30;;;-0.70;99.90;;;;;;5070594;28;20195;-75
2021/01/30 04:06:54;;;;;;;1.45;1.38;;;-0.80;99.90;;;;;;5070350;28;20212;-73
2021/01/30 04:09:21;;;;;;;0.10;0.10;;;-0.70;99.90;;;;;;5069093;28;20269;-73
2021/01/30 04:11:50;;;;;;;0.20;0.20;;;-0.80;99.90;;;;;;5070654;28;20207;-73
2021/01/30 04:14:16;;;;;;;0.22;0.22;;;-0.70;99.90;;;;;;5070244;28;20176;-75
2021/01/30 04:16:42;;;;;;;0.10;0.10;;;-0.60;99.90;;;;;;5070358;28;20156;-74
2021/01/30 04:19:08;;;;;;;0.10;0.10;;;-0.60;99.90;;;;;;5070490;28;20212;-74
2021/01/30 04:21:34;;;;;;;0.10;0.10;;;-0.60;99.90;;;;;;5069090;28;20187;-75
2021/01/30 04:24:00;;;;;;;0.68;0.63;;;-0.60;99.90;;;;;;5070245;28;20189;-76
2021/01/30 04:26:26;;;;;;;0.10;0.10;;;-0.70;99.90;;;;;;5070118;28;20165;-73
2021/01/30 04:28:52;;;;;;;0.93;0.93;;;-0.70;99.90;;;;;;5068545;28;20192;-75
2021/01/30 04:31:19;;;;;;;0.10;0.10;;;-0.90;99.90;;;;;;5070170;28;20157;-75
2021/01/30 04:33:47;;;;;;;0.25;0.25;;;-0.80;99.90;;;;;;5070362;28;20228;-74
2021/01/30 04:36:14;;;;;;;0.65;0.65;;;-0.70;99.90;;;;;;5070032;28;20145;-75
2021/01/30 04:38:40;;;;;;;0.80;0.80;;;-0.90;99.90;;;;;;5067511;28;20196;-75
2021/01/30 04:41:36;;;;;;;0.40;0.40;;;-0.90;99.90;;;;;;5068733;28;20240;-74
2021/01/30 04:44:22;;;;;;;0.10;0.10;;;-0.80;99.90;;;;;;5069749;28;20220;-74
2021/01/30 04:46:53;;;;;;;0.20;0.20;;;-0.90;99.90;;;;;;5069883;28;20303;-75
2021/01/30 04:49:35;;;;;;;1.20;1.20;;;-0.90;99.90;;;;;;5068332;28;20193;-74
2021/01/30 04:52:11;;;;;;;1.15;1.15;;;-0.90;99.90;;;;;;5069621;28;20271;-73
2021/01/30 04:55:11;;;;;;;0.10;0.10;;;-0.90;99.90;;;;;;5069756;28;20153;-73
2021/01/30 04:57:47;;;;;;;0.10;0.10;;;-1.00;99.90;;;;;;5068916;28;20212;-74
2021/01/30 05:00:36;;;;;;;0.20;0.20;;;-1.00;99.90;;;;;;5069567;28;20157;-73
2021/01/30 05:03:20;;;;;;;0.13;0.13;;;-0.90;99.90;;;;;;5057315;28;20215;-73
2021/01/30 05:05:49;;;;;;;0.20;0.20;;;-0.80;99.90;;;;;;5069582;28;20191;-73
2021/01/30 05:08:25;;;;;;;0.30;0.30;;;-0.80;99.90;;;;;;5069455;28;20563;-73
2021/01/30 05:11:05;;;;;;;0.20;0.20;;;-0.80;99.90;;;;;;5069399;28;20178;-74
2021/01/30 05:13:53;;;;;;;0.15;0.15;;;-0.70;99.90;;;;;;5067935;28;20172;-74
2021/01/30 05:16:25;;;;;;;0.10;0.10;;;-0.80;99.90;;;;;;5069402;28;20160;-74
2021/01/30 05:18:58;;;;;;;0.10;0.10;;;-0.80;99.90;;;;;;5069092;28;20180;-74
2021/01/30 05:21:39;;;;;;;0.10;0.10;;;-0.90;99.90;;;;;;5069276;28;20160;-74
2021/01/30 05:24:05;;;;;;;0.10;0.10;;;-0.90;99.90;;;;;;5069070;28;20185;-74
2021/01/30 05:26:56;;;;;;;1.60;1.45;;;-1.00;99.90;;;;;;5067489;28;20172;-74
2021/01/30 05:29:31;;;;;;;0.38;0.38;;;-1.00;99.90;;;;;;5069069;28;20185;-74
2021/01/30 05:32:00;;;;;;;0.45;0.45;;;-1.00;99.90;;;;;;5067658;28;20248;-73
2021/01/30 05:34:35;;;;;;;0.10;0.10;;;-0.90;99.90;;;;;;5068913;28;20176;-74
2021/01/30 05:37:09;;;;;;;0.20;0.20;;;-0.70;99.90;;;;;;5068502;28;20164;-74
2021/01/30 05:39:44;;;;;;;0.20;0.20;;;-0.80;99.90;;;;;;5068735;28;20219;-72
2021/01/30 05:42:30;;;;;;;0.10;0.10;;;-0.80;99.90;;;;;;5068823;28;20570;-74
2021/01/30 05:45:22;;;;;;;0.50;0.50;;;-0.50;99.90;;;;;;5067332;28;20204;-74
2021/01/30 05:47:51;;;;;;;0.20;0.20;;;-0.40;99.90;;;;;;5067292;28;20196;-74
2021/01/30 05:50:30;;;;;;;0.30;0.30;;;-0.50;99.90;;;;;;5066920;28;20192;-74
2021/01/30 05:52:57;;;;;;;0.60;0.60;;;-0.60;99.90;;;;;;5068856;28;20164;-74
2021/01/30 05:55:30;;;;;;;0.30;0.30;;;-0.70;99.90;;;;;;5067355;28;20172;-74
2021/01/30 05:57:58;;;;;;;0.10;0.10;;;-0.70;99.90;;;;;;5068414;28;20199;-74
2021/01/30 06:00:26;;;;;;;0.30;0.30;;;-0.80;99.90;;;;;;5068523;28;20247;-74
2021/01/30 06:03:09;;;;;;;0.95;0.68;;;-0.80;99.90;;;;;;5068298;28;20165;-75
2021/01/30 06:05:40;;;;;;;0.20;0.20;;;-0.80;99.90;;;;;;5068569;28;20193;-75
2021/01/30 06:08:32;;;;;;;1.58;1.10;;;-0.90;99.90;;;;;;5067274;28;20203;-74
2021/01/30 06:11:11;;;;;;;0.10;0.10;;;-0.90;99.90;;;;;;5068559;28;20180;-75
2021/01/30 06:14:03;;;;;;;0.20;0.20;;;-1.00;99.90;;;;;;5068398;28;20165;-74
2021/01/30 06:16:47;;;;;;;0.10;0.10;;;-1.00;99.90;;;;;;5068431;28;20184;-73
2021/01/30 06:19:15;;;;;;;0.30;0.30;;;-1.00;99.90;;;;;;5068406;28;20184;-73
2021/01/30 06:21:43;;;;;;;0.80;0.80;;;-1.10;99.90;;;;;;5068361;28;20169;-74
2021/01/30 06:24:28;;;;;;;0.05;0.05;;;-1.30;99.90;;;;;;5067021;28;20200;-73
2021/01/30 06:26:57;;;;;;;0.55;0.55;;;-1.30;99.90;;;;;;5068014;28;20161;-74
2021/01/30 06:29:32;;;;;;;0.20;0.20;;;-1.10;99.90;;;;;;5066774;28;20176;-74
2021/01/30 06:32:29;;;;;;;0.75;0.75;;;-1.00;99.90;;;;;;5067053;28;20168;-74
2021/01/30 06:35:18;;;;;;;0.20;0.20;;;-1.00;99.90;;;;;;5067123;28;20244;-73
2021/01/30 06:37:48;;;;;;;0.65;0.65;;;-0.90;99.90;;;;;;5067310;28;20262;-73
2021/01/30 06:40:33;;;;;;;0.10;0.10;;;-1.00;99.90;;;;;;5068136;28;20240;-73
2021/01/30 06:43:11;;;;;;;0.17;0.17;;;-1.10;99.90;;;;;;5066653;28;20232;-74
2021/01/30 06:45:43;;;;;;;2.55;0.93;;;-1.20;99.90;;;;;;5068106;28;20185;-75
2021/01/30 06:48:29;;;;;;;0.10;0.10;;;-1.20;99.90;;;;;;5068067;28;20199;-74
2021/01/30 06:50:56;;;;;;;0.35;0.35;;;-1.10;99.90;;;;;;5066374;28;20287;-74
2021/01/30 06:53:27;;;;;;;0.28;0.28;;;-1.20;99.90;;;;;;5068001;28;20258;-75
2021/01/30 06:55:54;;;;;;;0.10;0.10;;;-1.00;99.90;;;;;;5068148;28;20165;-74
2021/01/30 06:58:38;;;;;;;0.20;0.20;;;-0.70;99.90;;;;;;5067831;28;20192;-75
2021/01/30 07:01:15;;;;;;;0.20;0.20;;;-0.30;99.90;;;;;;5066682;28;20181;-75
2021/01/30 07:03:40;;;;;;;0.15;0.15;;;-0.30;99.90;;;;;;5071593;28;20251;-75
2021/01/30 07:06:25;;;;;;;0.93;0.90;;;-0.20;99.90;;;;;;5071911;28;20186;-75
2021/01/30 07:09:20;;;;;;;0.22;0.22;;;-0.10;99.90;;;;;;5071714;28;20185;-74
2021/01/30 07:11:59;;;;;;;0.10;0.10;;;0.00;99.90;;;;;;5071538;28;20153;-75
2021/01/30 07:14:54;;;;;;;0.10;0.10;;;0.30;99.90;;;;;;5071503;28;20175;-73
2021/01/30 07:17:41;;;;;;;0.75;0.75;;;0.40;99.90;;;;;;5071560;28;20311;-73
2021/01/30 07:20:27;;;;;;;0.20;0.20;;;0.50;99.90;;;;;;5069945;28;20175;-74
2021/01/30 07:23:13;;;;;;;0.28;0.28;;;0.50;99.90;;;;;;5071530;28;20178;-74
2021/01/30 07:25:46;;;;;;;0.70;0.70;;;0.50;99.90;;;;;;5070035;28;20235;-74
2021/01/30 07:28:39;;;;;;;1.45;0.85;;;0.50;99.90;;;;;;5071286;28;20195;-74
2021/01/30 07:31:28;;;;;;;0.95;0.95;;;0.80;99.90;;;;;;5069959;28;20161;-76
2021/01/30 07:34:05;;;;;;;0.10;0.10;;;0.90;99.90;;;;;;5071266;28;20157;-75
2021/01/30 07:37:02;;;;;;;0.17;0.17;;;0.70;99.90;;;;;;5070879;28;20156;-75
2021/01/30 07:39:54;;;;;;;0.40;0.40;;;0.90;99.90;;;;;;5071178;28;20157;-74
2021/01/30 07:42:28;;;;;;;0.10;0.10;;;0.90;99.90;;;;;;5069486;28;20231;-75
2021/01/30 07:45:01;;;;;;;0.20;0.20;;;1.00;99.90;;;;;;5071163;28;20275;-75
2021/01/30 07:48:06;;;;;;;1.33;1.23;;;0.80;99.90;;;;;;5071082;28;20189;-75
2021/01/30 07:50:35;;;;;;;0.20;0.20;;;0.70;99.90;;;;;;5070923;28;20236;-76
2021/01/30 07:53:19;;;;;;;0.10;0.10;;;0.90;99.90;;;;;;5070211;28;20176;-76
2021/01/30 07:56:16;;;;;;;0.10;0.10;;;1.10;99.90;;;;;;5081699;28;20225;-74
2021/01/30 07:59:01;;;;;;;0.52;0.52;;;1.30;99.90;;;;;;5072757;28;20280;-74
2021/01/30 08:02:04;;;;;;;0.10;0.10;;;1.40;99.90;;;;;;5073194;28;20240;-74
2021/01/30 08:04:39;;;;;;;0.05;0.05;;;1.50;99.90;;;;;;5081260;28;20204;-74
2021/01/30 08:07:29;;;;;;;0.05;0.05;;;1.50;99.90;;;;;;5078878;28;20179;-74
2021/01/30 08:10:07;;;;;;;0.68;0.68;;;1.70;99.90;;;;;;5073981;28;20161;-73
2021/01/30 08:12:54;;;;;;;0.15;0.15;;;1.90;99.90;;;;;;5069511;28;20160;-74
2021/01/30 08:15:34;;;;;;;0.10;0.10;;;1.90;99.90;;;;;;5069296;28;20222;-74
2021/01/30 08:18:20;;;;;;;1.42;1.35;;;1.70;99.90;;;;;;5070516;28;20192;-68
2021/01/30 08:21:00;;;;;;;1.08;1.08;;;2.00;99.90;;;;;;5101573;28;20224;-67
2021/01/30 08:23:28;;;;;;;0.10;0.10;;;2.10;99.90;;;;;;5093375;28;20175;-68
2021/01/30 08:26:00;;;;;;;0.10;0.10;;;2.50;99.90;;;;;;5104655;28;20255;-68
2021/01/30 08:28:32;;;;;;;2.08;1.95;;;2.90;99.90;;;;;;5097410;28;20191;-67
2021/01/30 08:30:57;;;;;;;0.05;0.05;;;3.30;99.90;;;;;;5096559;28;20168;-67
2021/01/30 08:33:23;;;;;;;0.75;0.75;;;4.40;99.90;;;;;;5105572;28;20172;-67
2021/01/30 08:35:57;;;;;;;1.40;1.33;;;5.60;99.90;;;;;;5092356;28;20167;-67
2021/01/30 08:38:22;;;;;;;1.73;0.95;;;6.10;99.90;;;;;;5096638;28;20202;-67
2021/01/30 08:40:51;;;;;;;0.15;0.08;;;7.50;99.90;;;;;;5098073;28;20165;-67
2021/01/30 08:43:43;;;;;;;0.57;0.35;;;9.70;99.90;;;;;;5097238;28;20230;-67
2021/01/30 08:46:39;;;;;;;2.40;0.60;;;11.40;99.90;;;;;;5087395;28;20196;-66
2021/01/30 08:49:14;;;;;;;0.57;0.57;;;11.30;99.90;;;;;;5087307;28;20208;-66
2021/01/30 08:51:45;;;;;;;0.40;0.40;;;10.30;99.90;;;;;;5106390;28;20175;-67
2021/01/30 08:54:37;;;;;;;3.65;1.50;;;9.00;99.90;;;;;;5095092;28;20175;-67
2021/01/30 08:57:05;;;;;;;2.15;0.93;;;9.50;99.90;;;;;;5095143;28;20167;-67
2021/01/30 08:59:48;;;;;;;0.40;0.30;;;8.10;99.90;;;;;;5106009;28;20163;-67
2021/01/30 09:02:26;;;;;;;0.55;0.55;;;8.20;99.90;;;;;;5089457;28;20245;-67
2021/01/30 09:05:04;;;;;;;0.08;0.08;;;8.70;99.90;;;;;;5094238;28;20190;-67
2021/01/30 09:07:51;;;;;;;0.28;0.28;;;8.80;99.90;;;;;;5091492;28;20249;-67
2021/01/30 09:10:22;;;;;;;13.43;1.35;;;10.90;99.90;;;;;;5089290;28;20179;-67
2021/01/30 09:13:01;;;;;;;1.17;0.75;;;12.60;99.90;;;;;;5082593;28;20172;-67
2021/01/30 09:15:41;;;;;;;0.38;0.25;;;13.90;99.90;;;;;;5075536;28;20203;-68
2021/01/30 09:18:22;;;;;;;0.20;0.20;;;14.70;99.90;;;;;;5078633;28;20187;-68
2021/01/30 09:20:55;;;;;;;0.60;0.60;;;14.60;99.90;;;;;;5077833;28;20259;-68
2021/01/30 09:23:57;;;;;;;0.63;0.63;;;15.20;99.90;;;;;;5078846;28;20171;-67
2021/01/30 09:26:48;;;;;;;1.67;1.02;;;16.10;99.90;;;;;;5079417;28;20166;-68
2021/01/30 09:29:25;;;;;;;9.63;0.88;;;16.10;99.90;;;;;;5077270;28;20539;-67
2021/01/30 09:31:59;;;;;;;0.47;0.47;;;15.50;99.90;;;;;;5068799;28;20173;-69
2021/01/30 09:34:33;;;;;;;2.13;0.98;;;14.30;99.90;;;;;;5068899;28;20233;-69
2021/01/30 09:37:00;;;;;;;0.75;0.75;;;13.70;99.90;;;;;;5068251;28;20175;-67
2021/01/30 09:39:31;;;;;;;0.52;0.52;;;12.80;99.90;;;;;;5067337;28;20157;-67
2021/01/30 09:42:17;;;;;;;0.40;0.40;;;11.90;99.90;;;;;;5067004;28;20213;-67
2021/01/30 09:44:44;;;;;;;0.20;0.20;;;11.20;99.90;;;;;;5068582;28;20260;-67
2021/01/30 09:47:20;;;;;;;1.10;0.85;;;10.00;99.90;;;;;;5085648;28;20192;-68
2021/01/30 09:50:02;;;;;;;0.20;0.20;;;10.50;99.90;;;;;;5088412;28;20174;-68
2021/01/30 09:52:29;;;;;;;1.00;1.00;;;12.10;99.90;;;;;;5087449;28;20172;-68
2021/01/30 09:55:09;;;;;;;0.28;0.28;;;13.40;99.90;;;;;;5088524;28;20174;-68
2021/01/30 09:57:37;;;;;;;0.90;0.90;;;15.10;99.90;;;;;;5088610;28;20222;-68
2021/01/30 10:00:11;;;;;;;0.20;0.20;;;15.50;99.90;;;;;;5088483;28;20152;-68
2021/01/30 10:02:37;;;;;;;2.05;0.65;;;16.00;99.90;;;;;;5088259;28;20155;-66
2021/01/30 10:05:06;;;;;;;0.40;0.40;;;17.20;99.90;;;;;;5088490;28;20215;-66
2021/01/30 10:07:33;;;;;;;1.08;0.85;;;17.50;99.90;;;;;;5078653;28;20192;-66
2021/01/30 10:09:59;;;;;;;1.38;0.60;;;18.40;99.90;;;;;;5071899;28;20176;-68
2021/01/30 10:12:26;;;;;;;2.35;0.82;;;19.80;99.90;;;;;;5077025;28;20191;-67
2021/01/30 10:14:55;;;;;;;0.85;0.30;;;19.30;99.90;;;;;;5083920;28;20184;-67
2021/01/30 10:17:21;;;;;;;1.50;0.90;;;19.50;99.90;;;;;;5087008;28;20199;-66
2021/01/30 10:19:57;;;;;;;0.73;0.57;;;19.70;99.90;;;;;;5088295;28;20193;-65
2021/01/30 10:22:33;;;;;;;2.28;0.50;;;17.80;99.90;;;;;;5088061;28;20201;-65
2021/01/30 10:25:02;;;;;;;0.30;0.30;;;15.60;99.90;;;;;;5087604;28;20357;-68
2021/01/30 10:27:31;;;;;;;0.45;0.45;;;13.20;99.90;;;;;;5086953;28;20281;-68
2021/01/30 10:29:58;;;;;;;1.27;1.17;;;13.00;99.90;;;;;;5088371;28;20163;-68
2021/01/30 10:32:57;;;;;;;2.03;1.92;;;12.40;99.90;;;;;;5088034;28;20160;-67
2021/01/30 10:35:38;;;;;;;2.17;1.23;;;12.60;99.90;;;;;;5085585;28;20225;-68
2021/01/30 10:38:13;;;;;;;1.35;1.25;;;12.20;99.90;;;;;;5089003;28;20213;-67
2021/01/30 10:40:44;;;;;;;1.77;1.25;;;11.40;99.90;;;;;;5087652;28;20190;-67
2021/01/30 10:43:28;;;;;;;0.80;0.80;;;10.70;99.90;;;;;;5072982;28;20246;-67
2021/01/30 10:46:02;;;;;;;0.40;0.40;;;10.30;99.90;;;;;;5089917;28;20222;-68
2021/01/30 10:48:34;;;;;;;1.33;0.52;;;10.20;99.90;;;;;;5089764;28;20267;-67
2021/01/30 10:51:06;;;;;;;1.67;1.55;;;10.40;99.90;;;;;;5089816;28;20180;-67
2021/01/30 10:53:34;;;;;;;0.45;0.45;;;10.60;99.90;;;;;;5089908;28;20193;-67
2021/01/30 10:56:21;;;;;;;0.20;0.20;;;11.90;99.90;;;;;;5089593;28;20152;-68
2021/01/30 10:58:49;;;;;;;0.20;0.20;;;14.20;99.90;;;;;;5089437;28;20208;-67
2021/01/30 11:01:17;;;;;;;2.55;1.15;;;15.30;99.90;;;;;;5089584;28;20160;-66
2021/01/30 11:03:54;;;;;;;0.73;0.65;;;16.10;99.90;;;;;;5072916;28;20194;-67
2021/01/30 11:06:35;;;;;;;1.35;1.25;;;17.20;99.90;;;;;;5089647;28;20167;-67
2021/01/30 11:09:33;;;;;;;1.15;1.15;;;16.80;99.90;;;;;;5072303;28;20195;-66
2021/01/30 11:12:19;;;;;;;1.00;1.00;;;17.90;99.90;;;;;;5076019;28;20183;-66
2021/01/30 11:14:45;;;;;;;0.65;0.65;;;18.50;99.90;;;;;;5091756;28;20163;-65
2021/01/30 11:17:31;;;;;;;0.93;0.93;;;18.00;99.90;;;;;;5091169;28;20240;-66
2021/01/30 11:19:58;;;;;;;6.18;1.50;;;17.10;99.90;;;;;;5091667;28;20159;-67
2021/01/30 11:22:28;;;;;;;2.38;1.67;;;16.10;99.90;;;;;;5091158;28;20173;-66
2021/01/30 11:25:12;;;;;;;4.63;0.73;;;16.30;99.90;;;;;;5081619;28;20196;-66
2021/01/30 11:27:45;;;;;;;1.65;0.90;;;17.70;99.90;;;;;;5069991;28;20202;-67
2021/01/30 11:30:11;;;;;;;1.50;1.40;;;18.50;99.90;;;;;;5071196;28;20186;-67
2021/01/30 11:32:38;;;;;;;1.65;1.50;;;18.40;99.90;;;;;;5071111;28;20164;-66
2021/01/30 11:35:04;;;;;;;0.88;0.88;;;18.20;99.90;;;;;;5070934;28;20174;-68
2021/01/30 11:37:32;;;;;;;2.33;1.70;;;18.90;99.90;;;;;;5071010;28;20226;-67
2021/01/30 11:40:10;;;;;;;2.53;1.20;;;19.80;99.90;;;;;;5071227;28;20157;-68
2021/01/30 11:42:37;;;;;;;3.50;2.33;;;19.80;99.90;;;;;;5089571;28;20226;-67
2021/01/30 11:45:05;;;;;;;0.57;0.57;;;19.40;99.90;;;;;;5090763;28;20206;-66
2021/01/30 11:47:31;;;;;;;0.90;0.90;;;19.20;99.90;;;;;;5090242;28;20572;-66
2021/01/30 11:49:56;;;;;;;1.90;1.55;;;19.00;99.90;;;;;;5090910;28;20155;-67
2021/01/30 11:52:25;;;;;;;1.63;1.35;;;18.70;99.90;;;;;;5091120;28;20159;-67
2021/01/30 11:54:51;;;;;;;0.55;0.55;;;18.90;99.90;;;;;;5090661;28;20231;-68
2021/01/30 11:57:17;;;;;;;1.58;1.25;;;19.50;99.90;;;;;;5090598;28;20688;-67
2021/01/30 11:59:44;;;;;;;1.45;1.33;;;19.60;99.90;;;;;;5090483;28;20170;-67
2021/01/30 12:02:34;;;;;;;28.50;2.40;;;19.50;99.90;;;;;;5090520;28;20170;-67
2021/01/30 12:05:00;;;;;;;1.00;0.95;;;19.50;99.90;;;;;;5090601;28;20195;-67
2021/01/30 12:07:26;;;;;;;1.70;0.95;;;19.70;99.90;;;;;;5086635;28;20203;-68
2021/01/30 12:09:52;;;;;;;22.88;1.13;;;19.70;99.90;;;;;;5089603;28;20224;-67
2021/01/30 12:12:19;;;;;;;6.90;2.00;;;19.50;99.90;;;;;;5090299;28;20523;-67
2021/01/30 12:14:45;;;;;;;2.42;2.20;;;19.70;99.90;;;;;;5090489;28;20235;-68
2021/01/30 12:17:20;;;;;;;3.08;2.00;;;20.00;99.90;;;;;;5090150;28;20252;-69
2021/01/30 12:19:46;;;;;;;2.35;1.40;;;19.10;99.90;;;;;;5090300;28;20163;-67
2021/01/30 12:22:11;;;;;;;6.32;0.77;;;17.90;99.90;;;;;;5090070;28;20174;-67
2021/01/30 12:24:39;;;;;;;2.63;2.20;;;17.80;99.90;;;;;;5090169;28;20187;-67
2021/01/30 12:27:05;;;;;;;3.58;1.38;;;17.30;99.90;;;;;;5088522;28;20171;-67
2021/01/30 12:29:31;;;;;;;1.38;1.27;;;17.00;99.90;;;;;;5090076;28;20547;-68
2021/01/30 12:31:57;;;;;;;0.65;0.65;;;16.70;99.90;;;;;;5089921;28;20151;-68
2021/01/30 12:34:23;;;;;;;2.67;1.48;;;16.70;99.90;;;;;;5077113;28;20184;-67
2021/01/30 12:36:48;;;;;;;0.43;0.43;;;16.70;99.90;;;;;;5083777;28;20206;-69
2021/01/30 12:39:14;;;;;;;0.45;0.43;;;16.50;99.90;;;;;;5090302;28;20183;-68
2021/01/30 12:41:40;;;;;;;5.20;0.98;;;15.60;99.90;;;;;;5077014;28;20211;-67
2021/01/30 12:44:06;;;;;;;0.73;0.73;;;14.70;99.90;;;;;;5086260;28;20183;-69
2021/01/30 12:46:44;;;;;;;1.02;0.82;;;14.00;99.90;;;;;;5089863;28;20160;-68
2021/01/30 12:49:10;;;;;;;0.22;0.22;;;13.40;99.90;;;;;;5087461;28;20203;-68
2021/01/30 12:51:37;;;;;;;0.40;0.40;;;13.00;99.90;;;;;;5089783;28;20168;-67
2021/01/30 12:54:03;;;;;;;5.78;1.55;;;12.70;99.90;;;;;;5089452;28;20152;-67
2021/01/30 12:56:29;;;;;;;0.43;0.43;;;12.60;99.90;;;;;;5079099;28;20202;-66
2021/01/30 12:58:55;;;;;;;24.83;1.55;;;12.60;99.90;;;;;;5068577;28;20221;-66
2021/01/30 13:01:20;;;;;;;0.60;0.60;;;12.50;99.90;;;;;;5069303;28;20184;-66
2021/01/30 13:03:46;;;;;;;1.58;1.48;;;12.40;99.90;;;;;;5069336;28;20152;-66
2021/01/30 13:06:12;;;;;;;7.72;2.03;;;12.40;99.90;;;;;;5082371;28;20211;-68
2021/01/30 13:08:38;;;;;;;4.13;1.05;;;12.30;99.90;;;;;;5089266;28;20219;-68
2021/01/30 13:11:04;;;;;;;21.52;1.55;;;12.30;99.90;;;;;;5088937;28;20161;-67
2021/01/30 13:13:30;;;;;;;0.43;0.43;;;12.40;99.90;;;;;;5089187;28;20647;-69
2021/01/30 13:15:56;;;;;;;1.08;1.08;;;12.50;99.90;;;;;;5087768;28;20221;-69
2021/01/30 13:18:21;;;;;;;0.45;0.45;;;12.60;99.90;;;;;;5088866;28;20167;-67
2021/01/30 13:20:47;;;;;;;1.92;1.08;;;12.70;99.90;;;;;;5088987;28;20160;-67
2021/01/30 13:23:13;;;;;;;0.93;0.93;;;12.70;99.90;;;;;;5088437;28;20657;-68